createdAt,value
2018-06-22T18:59:34.694Z,32.40
2018-06-22T19:02:17.531Z,30.50
2018-06-22T19:04:52.747Z,31.00
2018-06-22T19:07:27.367Z,31.90
2018-06-22T19:10:02.967Z,29.50
2018-06-22T19:12:38.812Z,31.17
2018-06-22T19:15:17.244Z,29.90
2018-06-22T19:17:53.037Z,32.13
2018-06-22T19:20:29.193Z,29.20
2018-06-22T19:23:05.999Z,29.23
2018-06-22T19:25:42.075Z,28.87
2018-06-22T19:28:19.298Z,28.27
2018-06-22T19:30:54.886Z,30.87
2018-06-22T19:33:30.333Z,29.97
2018-06-22T19:36:07.136Z,28.97
2018-06-22T19:38:42.648Z,28.67
2018-06-22T19:41:18.091Z,27.93
2018-06-22T19:43:57.144Z,26.97
2018-06-22T19:48:43.844Z,27.60
2018-06-22T19:51:22.547Z,27.27
2018-06-22T19:54:02.894Z,28.17
2018-06-22T19:56:38.634Z,27.70
2018-06-22T19:59:14.880Z,29.87
2018-06-22T20:01:50.112Z,28.07
2018-06-22T20:04:26.336Z,27.63
2018-06-22T20:07:04.623Z,29.37
2018-06-22T20:09:40.554Z,26.87
2018-06-22T20:12:18.706Z,29.00
2018-06-22T20:14:55.752Z,28.77
2018-06-22T20:17:31.647Z,29.67
2018-06-22T20:20:06.253Z,30.13
2018-06-22T20:22:42.162Z,29.90
2018-06-22T20:25:21.224Z,30.50
2018-06-22T20:27:56.472Z,32.50
2018-06-22T20:30:30.983Z,35.23
2018-06-22T20:33:06.574Z,35.13
2018-06-22T20:35:49.140Z,33.77
2018-06-22T20:38:29.442Z,32.43
2018-06-22T20:41:09.208Z,31.83
2018-06-22T20:43:49.057Z,29.47
2018-06-22T20:46:28.086Z,28.50
2018-06-22T20:49:07.140Z,28.23
2018-06-22T20:51:47.453Z,27.57
2018-06-22T20:54:22.883Z,28.47
2018-06-22T20:56:58.806Z,28.43
2018-06-22T20:59:34.974Z,28.63
2018-06-22T21:02:10.877Z,29.20
2018-06-22T21:04:48.803Z,28.63
2018-06-22T21:07:25.056Z,31.90
2018-06-22T21:10:01.201Z,32.63
2018-06-22T21:12:40.416Z,31.90
2018-06-22T21:15:14.232Z,30.30
2018-06-22T21:17:49.766Z,30.27
2018-06-22T21:20:25.271Z,30.90
2018-06-22T21:23:02.331Z,30.07
2018-06-22T21:25:37.832Z,29.77
2018-06-22T21:28:20.032Z,28.80
2018-06-22T21:30:58.662Z,30.27
2018-06-22T21:33:37.673Z,33.30
2018-06-22T21:36:22.152Z,33.33
2018-06-22T21:39:03.840Z,33.37
2018-06-22T21:41:39.947Z,31.73
2018-06-22T21:44:18.335Z,32.37
2018-06-22T21:46:51.817Z,32.97
2018-06-22T21:49:24.976Z,30.50
2018-06-22T21:52:00.320Z,31.10
2018-06-22T21:54:34.317Z,30.00
2018-06-22T21:57:11.125Z,34.27
2018-06-22T21:59:47.614Z,39.23
2018-06-22T22:02:27.301Z,38.93
2018-06-22T22:05:03.456Z,39.90
2018-06-22T22:07:40.137Z,37.40
2018-06-22T22:10:23.166Z,43.23
2018-06-22T22:12:59.304Z,39.40
2018-06-22T22:15:35.467Z,36.03
2018-06-22T22:18:13.216Z,35.70
2018-06-22T22:20:50.053Z,36.80
2018-06-22T22:23:25.892Z,36.37
2018-06-22T22:26:04.972Z,33.00
2018-06-22T22:28:44.324Z,31.13
2018-06-22T22:31:24.005Z,30.93
2018-06-22T22:34:00.015Z,29.87
2018-06-22T22:36:36.567Z,28.53
2018-06-22T22:39:13.689Z,28.97
2018-06-22T22:41:49.212Z,28.73
2018-06-22T22:44:25.621Z,27.80
2018-06-22T22:47:03.101Z,28.30
2018-06-22T22:49:42.737Z,32.10
2018-06-22T22:52:44.326Z,30.60
2018-06-22T22:55:21.526Z,32.67
2018-06-22T22:57:58.085Z,35.97
2018-06-22T23:00:35.598Z,36.70
2018-06-22T23:03:16.736Z,38.57
2018-06-22T23:05:58.973Z,38.70
2018-06-22T23:08:34.717Z,39.97
2018-06-22T23:11:13.697Z,39.27
2018-06-22T23:13:49.932Z,46.93
2018-06-22T23:16:33.693Z,37.43
2018-06-22T23:19:11.773Z,36.80
2018-06-22T23:21:48.618Z,35.03
2018-06-22T23:24:25.857Z,30.97
2018-06-22T23:27:05.528Z,29.60
2018-06-22T23:29:41.700Z,30.20
2018-06-22T23:32:17.864Z,30.23
2018-06-22T23:34:57.011Z,30.43
2018-06-22T23:37:33.855Z,29.57
2018-06-22T23:40:09.703Z,30.20
2018-06-22T23:42:45.364Z,31.97
2018-06-22T23:45:22.853Z,30.73
2018-06-22T23:47:59.282Z,31.77
2018-06-22T23:50:34.992Z,31.63
2018-06-22T23:53:10.645Z,32.53
2018-06-22T23:55:48.719Z,32.97
2018-06-22T23:58:31.287Z,30.97
